アテネ の空港の天気 - METARとTAF

アテネ国際空港 ( LGAV / ATH ) - ギリシャ アテネ
飛行場実況気象(Metar)
観測時間08/25 21:50 EEST (08/25 18:50 UTC)
風向・風速北 3m/s
視程10km以上
天気現象
なし
気温30℃
湿度35%
気圧1013hPa
METARLGAV 251850Z 35006KT 280V030 CAVOK 30/13 Q1013 NOSIG
過去の天気等 Google飛行場航空写真 Wunderground天気予報

過去48時間のMETAR

飛行場予報(TAF)
発表時間: 8/25 20:00 EEST (8/25 17:00 UTC)
予報対象時間: 25日21時 EEST ~ 26日21時 EEST
風向・風速北北東 8m/s
視程10km以上
少しの雲 雲底高度 760m
26日9時 EEST ~ 26日18時 EEST に一時的に
風向・風速北北東 10m/s 瞬間風速 15m/s
TAF LGAV 251700Z 2518/2618 02016KT 9999 FEW025
TEMPO 2606/2615 02020G30KT